Time;durP1;ratioP1;P1;durP2;ratioP2;P2;SDS_P1;SDS_P2;PMS_P1;PMS_P2;Temp;Humidity;BMP_temperature;BMP_pressure;BME280_temperature;BME280_humidity;BME280_pressure;Samples;Min_cycle;Max_cycle;Signal;HPM_P1;HPM_P2
2022/12/20 00:01:10;;;;;;;9.37;3.57;;;;;;;1.71;55.36;101304.75;5982699;24;20198;-86
2022/12/20 00:03:36;;;;;;;8.63;4.33;;;;;;;1.76;55.10;101303.09;5983033;24;20151;-86
2022/12/20 00:06:02;;;;;;;7.63;4.33;;;;;;;1.73;55.39;101305.63;6005715;23;20194;-86
2022/12/20 00:08:27;;;;;;;8.70;3.97;;;;;;;1.74;55.97;101315.13;6011054;23;20161;-86
2022/12/20 00:10:53;;;;;;;11.20;4.50;;;;;;;1.75;55.79;101311.72;6011035;23;20237;-86
2022/12/20 00:13:18;;;;;;;9.23;4.27;;;;;;;1.67;56.61;101310.72;6010932;23;20150;-86
2022/12/20 00:15:44;;;;;;;13.37;5.13;;;;;;;1.64;57.05;101302.91;6011109;23;20536;-86
2022/12/20 00:18:09;;;;;;;14.10;5.83;;;;;;;1.67;57.07;101308.13;6011028;23;20155;-86
2022/12/20 00:20:35;;;;;;;10.90;6.77;;;;;;;1.71;57.45;101303.88;6010718;23;20151;-86
2022/12/20 00:23:01;;;;;;;15.03;4.90;;;;;;;1.69;57.44;101302.97;5986060;23;20542;-86
2022/12/20 00:25:26;;;;;;;10.97;4.50;;;;;;;1.66;57.58;101305.50;6010625;23;20186;-86
2022/12/20 00:27:52;;;;;;;13.23;5.37;;;;;;;1.67;57.45;101310.72;5985918;23;20166;-86
2022/12/20 00:30:18;;;;;;;13.00;5.60;;;;;;;1.67;57.15;101310.72;6010683;23;20264;-86
2022/12/20 00:32:45;;;;;;;10.67;4.60;;;;;;;1.62;57.45;101309.75;6010671;23;20271;-86
2022/12/20 00:35:11;;;;;;;10.83;5.27;;;;;;;1.71;57.31;101303.88;6011252;23;20147;-86
2022/12/20 00:37:37;;;;;;;13.93;6.57;;;;;;;1.64;56.89;101305.50;6010929;23;20168;-86
2022/12/20 00:40:03;;;;;;;16.40;5.30;;;;;;;1.59;57.63;101299.38;6010609;23;20204;-86
2022/12/20 00:42:29;;;;;;;13.03;4.93;;;;;;;1.55;57.07;101287.22;5985870;23;20598;-86
2022/12/20 00:44:54;;;;;;;13.80;5.40;;;;;;;1.59;57.75;101291.59;6009345;23;20431;-86
2022/12/20 00:47:20;;;;;;;11.77;5.27;;;;;;;1.63;57.38;101293.41;6010589;23;20616;-86
2022/12/20 00:49:45;;;;;;;9.97;4.50;;;;;;;1.60;57.46;101298.50;6010882;23;20480;-86
2022/12/20 00:52:11;;;;;;;8.20;4.30;;;;;;;1.59;57.55;101298.50;6010895;23;20155;-86
2022/12/20 00:54:36;;;;;;;8.37;3.97;;;;;;;1.59;56.92;101296.78;6010871;23;20157;-86
2022/12/20 00:57:02;;;;;;;14.23;5.37;;;;;;;1.61;57.19;101286.44;5985900;23;20171;-86
2022/12/20 00:59:27;;;;;;;13.50;5.83;;;;;;;1.64;57.16;101284.81;6010601;23;20297;-86
2022/12/20 01:01:53;;;;;;;13.73;5.43;;;;;;;1.59;56.44;101282.97;6010617;23;20150;-86
2022/12/20 01:04:18;;;;;;;9.17;3.90;;;;;;;1.63;56.42;101277.88;6010301;23;20543;-86
2022/12/20 01:06:44;;;;;;;14.50;4.57;;;;;;;1.59;56.13;101283.84;6010810;23;20150;-86
2022/12/20 01:09:10;;;;;;;11.27;4.10;;;;;;;1.59;56.22;101277.81;5986588;23;20456;-86
2022/12/20 01:11:37;;;;;;;19.80;5.23;;;;;;;1.60;55.95;101277.81;5985785;23;20225;-86
2022/12/20 01:14:11;;;;;;;6.03;3.53;;;;;;;1.40;56.07;101286.06;6010529;23;20587;-86
2022/12/20 01:16:47;;;;;;;11.43;4.23;;;;;;;1.35;56.58;101280.81;6010426;23;20398;-86
2022/12/20 01:19:15;;;;;;;11.87;4.10;;;;;;;1.38;56.28;101267.97;6010816;23;20567;-86
2022/12/20 01:21:44;;;;;;;10.07;4.63;;;;;;;1.39;56.40;101259.34;6010524;23;20162;-85
2022/12/20 01:24:14;;;;;;;14.67;4.23;;;;;;;1.25;56.04;101271.16;6011310;23;20570;-85
2022/12/20 01:26:40;;;;;;;12.37;4.97;;;;;;;1.24;56.66;101257.38;6012150;23;20155;-85
2022/12/20 01:29:06;;;;;;;12.03;4.50;;;;;;;1.26;57.22;101261.69;6012872;23;20174;-85
2022/12/20 01:31:32;;;;;;;12.67;4.67;;;;;;;1.26;57.03;101257.38;6012146;23;20151;-85
2022/12/20 01:33:59;;;;;;;9.03;3.67;;;;;;;1.27;57.37;101238.47;6012082;23;20158;-86
2022/12/20 01:36:28;;;;;;;8.23;3.70;;;;;;;1.32;56.41;101239.41;5987504;23;20155;-85
2022/12/20 01:38:58;;;;;;;6.77;2.97;;;;;;;1.21;56.04;101234.06;5987455;23;20158;-85
2022/12/20 01:41:24;;;;;;;6.87;3.57;;;;;;;1.17;56.33;101241.72;6010799;23;20159;-85
2022/12/20 01:43:52;;;;;;;6.90;3.27;;;;;;;1.13;56.30;101233.03;5987391;23;20168;-85
2022/12/20 01:46:20;;;;;;;9.03;4.90;;;;;;;1.13;56.67;101219.25;5988136;23;20540;-85
2022/12/20 01:48:54;;;;;;;8.20;3.80;;;;;;;1.16;56.60;101220.19;6011996;23;20182;-85
2022/12/20 01:51:21;;;;;;;9.17;3.97;;;;;;;1.21;56.85;101212.50;6010818;23;20150;-86
2022/12/20 01:53:51;;;;;;;6.70;3.30;;;;;;;1.17;56.40;101216.78;6011962;23;20165;-85
2022/12/20 01:56:16;;;;;;;8.33;2.93;;;;;;;1.19;56.02;101211.63;6011830;23;20540;-86
2022/12/20 01:58:44;;;;;;;9.23;3.77;;;;;;;1.16;56.21;101214.16;6011875;23;20241;-85
2022/12/20 02:01:09;;;;;;;9.90;3.77;;;;;;;1.12;56.61;101202.91;6011845;23;20464;-86
2022/12/20 02:03:35;;;;;;;7.03;3.37;;;;;;;1.19;55.45;101209.03;6011782;23;20389;-86
2022/12/20 02:06:14;;;;;;;8.57;4.63;;;;;;;1.22;54.81;101215.16;5986926;23;20221;-86
2022/12/20 02:08:40;;;;;;;9.07;3.83;;;;;;;1.16;55.14;101211.56;6012187;23;20166;-86
2022/12/20 02:11:13;;;;;;;12.90;3.97;;;;;;;1.05;55.66;101207.91;6010333;23;20403;-85
2022/12/20 02:14:00;;;;;;;7.67;3.57;;;;;;;1.05;55.12;101210.50;6012129;23;20165;-85
2022/12/20 02:16:31;;;;;;;9.43;4.07;;;;;;;1.01;54.90;101203.53;6012069;23;20362;-85
2022/12/20 02:19:27;;;;;;;12.13;4.73;;;;;;;0.98;55.78;101199.19;6011748;23;20412;-86
2022/12/20 02:22:16;;;;;;;8.23;4.20;;;;;;;1.02;55.98;101206.13;6012250;23;20161;-86
2022/12/20 02:25:00;;;;;;;13.23;3.70;;;;;;;1.03;56.54;101204.44;5994042;23;20461;-86
2022/12/20 02:27:42;;;;;;;8.20;3.73;;;;;;;0.94;56.56;101210.31;6011950;23;20811;-86
2022/12/20 02:30:15;;;;;;;5.83;3.13;;;;;;;0.78;56.64;101204.81;5986938;23;20378;-85
2022/12/20 02:32:51;;;;;;;11.93;4.57;;;;;;;0.75;57.50;101202.16;6011555;23;20381;-85
2022/12/20 02:35:26;;;;;;;21.57;5.43;;;;;;;0.79;57.42;101207.41;5986364;23;20446;-85
2022/12/20 02:37:55;;;;;;;14.67;5.47;;;;;;;0.84;57.44;101202.38;6011568;23;20157;-85
2022/12/20 02:40:28;;;;;;;11.47;4.77;;;;;;;0.92;57.17;101199.06;6011389;23;20782;-85
2022/12/20 02:43:01;;;;;;;9.77;4.37;;;;;;;0.96;56.64;101184.50;6011454;23;20207;-85
2022/12/20 02:45:32;;;;;;;12.20;5.33;;;;;;;0.89;57.26;101182.66;5987473;23;20181;-85
2022/12/20 02:48:03;;;;;;;11.23;5.23;;;;;;;0.83;57.26;101172.22;6011740;23;20138;-86
2022/12/20 02:50:44;;;;;;;12.63;4.97;;;;;;;0.80;57.69;101167.00;6011748;23;20135;-85
2022/12/20 02:53:10;;;;;;;13.50;5.97;;;;;;;0.77;57.95;101172.09;6011387;23;20206;-85
2022/12/20 02:55:52;;;;;;;15.63;5.47;;;;;;;0.74;57.73;101166.84;6011631;23;20147;-85
2022/12/20 02:58:30;;;;;;;10.33;4.67;;;;;;;0.79;57.98;101160.06;6011684;23;20142;-85
2022/12/20 03:01:03;;;;;;;14.87;6.33;;;;;;;0.79;58.32;101165.22;6011654;23;20146;-85
2022/12/20 03:03:31;;;;;;;15.57;4.93;;;;;;;0.77;58.22;101166.91;6011284;23;20366;-85
2022/12/20 03:05:57;;;;;;;8.17;4.27;;;;;;;0.78;58.75;101169.56;6011082;23;20476;-85
2022/12/20 03:08:23;;;;;;;16.73;4.37;;;;;;;0.77;58.81;101160.06;6011925;23;20158;-85
2022/12/20 03:10:50;;;;;;;10.67;4.80;;;;;;;0.82;59.08;101157.56;6011191;23;20157;-85
2022/12/20 03:13:16;;;;;;;12.07;4.13;;;;;;;0.79;59.80;101160.06;5986518;23;20154;-85
2022/12/20 03:15:42;;;;;;;10.17;4.63;;;;;;;0.76;59.76;101160.88;6011201;23;20394;-85
2022/12/20 03:18:07;;;;;;;8.17;4.23;;;;;;;0.79;60.20;101160.06;6011102;23;20839;-85
2022/12/20 03:20:33;;;;;;;15.80;6.03;;;;;;;0.86;60.09;101161.94;6011131;23;20157;-85
2022/12/20 03:22:59;;;;;;;9.97;4.43;;;;;;;0.90;60.12;101158.56;6011117;23;20164;-85
2022/12/20 03:25:24;;;;;;;12.60;5.10;;;;;;;0.93;60.24;101163.78;6011169;23;20185;-85
2022/12/20 03:27:50;;;;;;;9.53;4.90;;;;;;;0.90;60.94;101158.56;6011693;23;20163;-85
2022/12/20 03:30:16;;;;;;;9.33;4.97;;;;;;;0.93;60.50;101158.63;6011059;23;20659;-85
2022/12/20 03:32:41;;;;;;;13.40;5.47;;;;;;;0.93;60.90;101156.03;6011386;23;20157;-86
2022/12/20 03:35:07;;;;;;;17.57;4.37;;;;;;;0.92;60.62;101151.72;6011075;23;20230;-85
2022/12/20 03:37:32;;;;;;;7.17;4.20;;;;;;;0.97;60.45;101155.28;6011253;23;20204;-85
2022/12/20 03:39:58;;;;;;;11.40;5.53;;;;;;;0.98;59.94;101141.50;6011262;23;20161;-85
2022/12/20 03:42:23;;;;;;;12.30;4.40;;;;;;;1.01;60.30;101162.22;6010959;23;20506;-85
2022/12/20 03:44:49;;;;;;;12.97;6.17;;;;;;;0.93;59.88;101154.34;6011346;23;20253;-85
2022/12/20 03:47:14;;;;;;;14.63;5.80;;;;;;;0.91;60.43;101153.44;6010825;23;20568;-85
2022/12/20 03:49:40;;;;;;;16.33;5.57;;;;;;;0.93;60.74;101148.31;6009613;23;20232;-86
2022/12/20 03:52:05;;;;;;;12.03;5.57;;;;;;;0.92;60.58;101152.59;6011209;23;20164;-85
2022/12/20 03:54:31;;;;;;;12.47;4.77;;;;;;;0.90;61.21;101153.41;6011193;23;20218;-85
2022/12/20 03:56:56;;;;;;;5.37;3.00;;;;;;;0.86;61.27;101160.25;6010882;23;20458;-85
2022/12/20 03:59:22;;;;;;;9.77;5.37;;;;;;;0.78;61.07;101155.78;6011146;23;20213;-85
2022/12/20 04:01:47;;;;;;;17.83;6.73;;;;;;;0.72;60.71;101153.06;6010799;23;20673;-85
2022/12/20 04:04:14;;;;;;;38.77;10.03;;;;;;;0.68;60.87;101161.59;6010860;23;20159;-86
2022/12/20 04:06:40;;;;;;;11.13;6.03;;;;;;;0.58;61.15;101160.53;6011086;23;20143;-86
2022/12/20 04:09:06;;;;;;;12.10;6.90;;;;;;;0.53;60.72;101162.16;6011094;23;20392;-85
2022/12/20 04:11:32;;;;;;;15.70;6.40;;;;;;;0.53;61.28;101157.88;6009938;23;20241;-85
2022/12/20 04:13:57;;;;;;;9.03;4.87;;;;;;;0.58;60.62;101161.41;6010725;23;20237;-85
2022/12/20 04:16:25;;;;;;;10.37;4.93;;;;;;;0.52;60.86;101158.69;6011049;23;20150;-85
2022/12/20 04:18:51;;;;;;;10.27;5.73;;;;;;;0.42;61.16;101149.03;5986064;23;20583;-85
2022/12/20 04:21:25;;;;;;;14.13;5.57;;;;;;;0.52;61.39;101153.53;6010711;23;20153;-85
2022/12/20 04:23:51;;;;;;;12.27;4.40;;;;;;;0.51;61.36;101144.06;6011009;23;20164;-85
2022/12/20 04:26:17;;;;;;;14.27;5.37;;;;;;;0.52;61.66;101152.69;6010647;23;20422;-85
2022/12/20 04:28:42;;;;;;;8.60;3.27;;;;;;;0.56;62.01;101146.72;6010993;23;20236;-85
2022/12/20 04:31:09;;;;;;;12.63;5.43;;;;;;;0.54;62.04;101146.72;5986115;23;20169;-85
2022/12/20 04:33:35;;;;;;;11.37;5.20;;;;;;;0.63;62.36;101145.16;5985923;23;20171;-84
2022/12/20 04:36:01;;;;;;;12.53;4.67;;;;;;;0.61;62.54;101145.13;6011338;23;20405;-85
2022/12/20 04:38:26;;;;;;;10.07;4.70;;;;;;;0.53;63.34;101144.97;5986415;23;20563;-84
2022/12/20 04:40:54;;;;;;;26.67;8.43;;;;;;;0.59;63.08;101139.94;6010639;23;20236;-85
2022/12/20 04:43:20;;;;;;;12.10;3.47;;;;;;;0.49;63.62;101144.88;6010475;23;20182;-84
2022/12/20 04:45:47;;;;;;;10.13;3.60;;;;;;;0.52;63.88;101135.47;6010605;23;20450;-85
2022/12/20 04:48:13;;;;;;;13.00;4.30;;;;;;;0.57;63.47;101133.00;6010595;23;20871;-85
2022/12/20 04:50:39;;;;;;;10.47;3.83;;;;;;;0.71;63.83;101134.13;6010599;23;20412;-84
2022/12/20 04:55:49;;;;;;;9.20;5.00;;;;;;;0.69;63.88;101138.38;6011622;23;20546;-84
2022/12/20 04:58:15;;;;;;;10.10;3.30;;;;;;;0.83;63.13;101139.53;6011578;23;20462;-85
2022/12/20 05:00:41;;;;;;;10.67;4.17;;;;;;;0.81;63.61;101127.44;6012719;23;20184;-84
2022/12/20 05:03:06;;;;;;;6.57;2.50;;;;;;;0.81;63.58;101127.44;6012366;23;20151;-85
2022/12/20 05:05:31;;;;;;;10.90;4.53;;;;;;;0.96;63.12;101127.72;6010987;23;20701;-85
2022/12/20 05:07:57;;;;;;;11.67;4.47;;;;;;;0.99;63.19;101127.78;6010880;23;20514;-85
2022/12/20 05:10:23;;;;;;;9.63;3.87;;;;;;;0.97;63.32;101130.31;6010508;23;20159;-85
2022/12/20 05:12:48;;;;;;;11.90;5.40;;;;;;;0.95;63.10;101137.16;6010570;23;20236;-85
2022/12/20 05:15:14;;;;;;;12.37;4.43;;;;;;;1.13;62.62;101134.03;6010549;23;20185;-85
2022/12/20 05:17:39;;;;;;;11.33;5.17;;;;;;;1.29;62.21;101135.16;5985777;23;20162;-85
2022/12/20 05:20:06;;;;;;;10.73;5.60;;;;;;;1.41;62.10;101122.44;6009855;23;20150;-85
2022/12/20 05:28:00;;;;;;;8.77;4.13;;;;;;;1.46;61.74;101115.63;6010816;23;20432;-86
2022/12/20 05:30:26;;;;;;;12.50;4.63;;;;;;;1.39;62.35;101111.22;6010471;23;20593;-85
2022/12/20 05:32:51;;;;;;;12.87;4.80;;;;;;;1.46;62.27;101108.75;6010957;23;20498;-86
2022/12/20 05:35:17;;;;;;;12.67;5.40;;;;;;;1.53;62.01;101102.84;6008886;23;20149;-85
2022/12/20 05:37:42;;;;;;;12.07;4.63;;;;;;;1.66;61.75;101109.91;6009055;23;20158;-85
2022/12/20 05:40:09;;;;;;;11.03;4.00;;;;;;;1.64;61.87;101106.44;5984344;23;20222;-86
2022/12/20 05:42:34;;;;;;;17.27;5.27;;;;;;;1.47;62.85;101114.81;6008976;23;20589;-85
2022/12/20 05:45:00;;;;;;;10.90;4.73;;;;;;;1.57;63.38;101112.34;6008827;23;20178;-86
2022/12/20 05:47:26;;;;;;;15.13;5.23;;;;;;;1.57;63.24;101104.59;6008993;23;20161;-85
2022/12/20 05:49:51;;;;;;;13.83;4.53;;;;;;;1.43;63.36;101100.97;6008253;23;20162;-85
2022/12/20 05:52:17;;;;;;;13.43;4.93;;;;;;;1.47;63.93;101105.31;6009187;23;20265;-86
2022/12/20 05:54:42;;;;;;;9.33;4.23;;;;;;;1.59;64.08;101112.41;6010629;23;20161;-86
2022/12/20 05:57:08;;;;;;;14.13;5.87;;;;;;;1.61;64.43;101108.13;6010621;23;20470;-86
2022/12/20 05:59:33;;;;;;;13.60;4.80;;;;;;;1.70;63.72;101103.09;6010382;23;20218;-86
2022/12/20 06:01:59;;;;;;;12.80;5.03;;;;;;;1.79;63.29;101098.91;6010890;23;20158;-86
2022/12/20 06:04:25;;;;;;;10.63;4.93;;;;;;;1.72;63.76;101099.69;5961556;23;1178563;-85
2022/12/20 06:06:51;;;;;;;10.93;4.97;;;;;;;1.73;63.40;101100.56;6012168;23;20150;-86
2022/12/20 06:09:16;;;;;;;5.47;3.23;;;;;;;1.71;63.24;101103.09;6012025;23;20173;-85
2022/12/20 06:11:42;;;;;;;10.67;4.93;;;;;;;1.72;63.75;101107.44;6011761;23;20407;-86
2022/12/20 06:14:07;;;;;;;8.93;4.67;;;;;;;1.88;63.13;101111.09;6011751;23;20655;-86
2022/12/20 06:16:33;;;;;;;12.07;4.70;;;;;;;1.97;62.82;101107.75;6011752;23;20221;-86
2022/12/20 06:18:59;;;;;;;10.70;4.27;;;;;;;2.06;63.00;101103.59;5987029;23;20230;-86
2022/12/20 06:21:27;;;;;;;10.73;4.50;;;;;;;2.03;62.92;101100.09;6011715;23;20217;-86
2022/12/20 06:23:53;;;;;;;15.27;6.10;;;;;;;1.98;63.02;101100.03;6011672;23;20250;-85
2022/12/20 06:26:18;;;;;;;9.67;5.03;;;;;;;2.02;62.68;101104.38;6011551;23;20245;-86
2022/12/20 06:29:50;;;;;;;10.50;4.70;;;;;;;2.07;62.90;101107.06;6011652;23;20159;-86
2022/12/20 06:32:46;;;;;;;14.03;5.93;;;;;;;2.08;63.08;101099.31;5894957;24;20190;-87
2022/12/20 06:35:11;;;;;;;15.40;5.83;;;;;;;2.21;63.01;101097.72;5962383;23;20158;-87
2022/12/20 06:37:39;;;;;;;10.37;4.87;;;;;;;2.15;63.27;101097.69;6012138;23;20451;-86
2022/12/20 06:40:06;;;;;;;10.73;5.40;;;;;;;2.17;63.28;101103.72;6011336;23;20623;-87
2022/12/20 06:42:31;;;;;;;14.37;5.20;;;;;;;2.36;62.64;101100.50;5987265;23;20194;-87
2022/12/20 06:44:57;;;;;;;10.93;4.87;;;;;;;2.28;62.60;101086.63;6010335;23;20182;-87
2022/12/20 06:47:22;;;;;;;11.77;3.67;;;;;;;1.99;63.16;101099.19;6011473;23;20178;-86
2022/12/20 06:49:48;;;;;;;10.63;4.77;;;;;;;1.84;64.34;101099.84;6011799;23;20618;-86
2022/12/20 06:52:13;;;;;;;11.53;4.37;;;;;;;1.85;64.70;101090.38;6011368;23;20483;-85
2022/12/20 06:54:38;;;;;;;10.60;4.10;;;;;;;1.86;64.15;101100.72;6011682;23;20155;-86
2022/12/20 06:57:05;;;;;;;14.77;4.30;;;;;;;2.12;63.80;101107.97;6011644;23;20150;-87
2022/12/20 06:59:31;;;;;;;13.97;4.70;;;;;;;2.23;63.44;101107.25;6011366;23;20162;-87
2022/12/20 07:01:56;;;;;;;10.13;4.10;;;;;;;2.04;63.68;101100.13;5987017;23;20580;-86
2022/12/20 07:04:22;;;;;;;11.93;4.73;;;;;;;2.26;64.37;101103.81;6011000;23;20218;-87
2022/12/20 07:06:47;;;;;;;13.53;5.53;;;;;;;2.40;63.53;101108.34;6011980;23;20162;-87
2022/12/20 07:09:13;;;;;;;15.93;6.20;;;;;;;2.37;63.60;101108.28;5986513;23;20503;-87
2022/12/20 07:11:38;;;;;;;10.50;3.77;;;;;;;2.67;62.34;101094.84;6011858;23;20154;-87
2022/12/20 07:14:04;;;;;;;11.83;5.20;;;;;;;2.86;61.47;101094.16;6011247;23;20155;-87
2022/12/20 07:16:31;;;;;;;10.73;3.93;;;;;;;3.02;60.31;101092.56;6011059;23;20641;-87
2022/12/20 07:18:56;;;;;;;10.93;4.33;;;;;;;3.09;60.27;101097.81;6011208;23;20158;-87
2022/12/20 07:21:22;;;;;;;20.37;4.20;;;;;;;3.08;60.11;101098.69;6011294;23;20482;-87
2022/12/20 07:23:47;;;;;;;9.23;4.23;;;;;;;3.01;59.69;101091.69;6011260;23;20548;-87
2022/12/20 07:26:14;;;;;;;9.73;4.03;;;;;;;3.08;58.79;101096.09;6011409;23;20198;-87
2022/12/20 07:28:42;;;;;;;9.40;3.63;;;;;;;2.94;59.40;101108.03;6011182;23;20230;-87
2022/12/20 07:31:08;;;;;;;7.93;3.60;;;;;;;3.19;59.06;101103.97;6011126;23;20587;-88
2022/12/20 07:33:33;;;;;;;14.03;4.93;;;;;;;3.39;58.90;101104.09;5986456;23;20173;-87
2022/12/20 07:36:01;;;;;;;14.47;4.93;;;;;;;3.57;58.54;101083.50;6011371;23;20151;-88
2022/12/20 07:38:27;;;;;;;5.57;2.53;;;;;;;3.57;57.56;101089.56;6011015;23;20174;-87
2022/12/20 07:40:52;;;;;;;6.57;2.93;;;;;;;3.70;57.78;101103.47;6011274;23;20157;-88
2022/12/20 07:43:18;;;;;;;10.73;4.33;;;;;;;3.59;57.39;101097.38;6010947;23;20154;-87
2022/12/20 07:45:43;;;;;;;8.97;4.43;;;;;;;3.53;57.84;101100.78;6010883;23;20182;-87
2022/12/20 07:48:09;;;;;;;9.13;4.60;;;;;;;3.78;58.23;101098.31;6011016;23;20155;-87
2022/12/20 07:50:34;;;;;;;12.73;6.10;;;;;;;4.10;57.98;101097.66;6010929;23;20450;-87
2022/12/20 07:53:02;;;;;;;15.53;7.00;;;;;;;4.20;57.14;101094.25;6011305;23;20230;-88
2022/12/20 07:55:30;;;;;;;14.90;6.20;;;;;;;4.40;57.21;101099.53;6011195;23;20189;-88
2022/12/20 07:58:01;;;;;;;7.93;4.13;;;;;;;4.51;56.41;101094.38;6011027;23;20241;-87
2022/12/20 08:00:26;;;;;;;12.60;4.80;;;;;;;4.31;55.78;101089.09;5986724;23;20533;-87
2022/12/20 08:03:04;;;;;;;13.43;4.67;;;;;;;4.23;55.56;101078.69;6010899;23;20162;-87
2022/12/20 08:05:31;;;;;;;11.47;5.17;;;;;;;4.31;55.69;101074.41;6011067;23;20186;-88
2022/12/20 08:07:58;;;;;;;11.57;4.13;;;;;;;4.43;56.07;101076.16;6010801;23;20150;-88
2022/12/20 08:10:25;;;;;;;9.40;4.80;;;;;;;4.53;56.13;101064.06;6010802;23;20478;-88
2022/12/20 08:12:50;;;;;;;11.97;5.37;;;;;;;4.50;55.96;101064.94;6011027;23;20159;-87
2022/12/20 08:15:18;;;;;;;13.40;5.00;;;;;;;4.45;56.67;101065.78;6010808;23;20151;-87
2022/12/20 08:17:43;;;;;;;10.53;3.97;;;;;;;4.23;55.92;101063.13;6010858;23;20182;-86
2022/12/20 08:20:09;;;;;;;17.77;3.33;;;;;;;3.93;56.83;101070.75;6010796;23;20489;-86
2022/12/20 08:22:35;;;;;;;11.90;4.90;;;;;;;4.05;56.91;101067.34;6011404;23;20151;-87
2022/12/20 08:25:01;;;;;;;10.63;4.70;;;;;;;4.13;55.86;101068.25;6010784;23;20208;-86
2022/12/20 08:27:26;;;;;;;11.60;5.50;;;;;;;4.28;56.68;101063.13;6010843;23;20150;-87
2022/12/20 08:29:51;;;;;;;11.90;4.67;;;;;;;3.94;56.03;101062.13;5986196;23;20169;-87
2022/12/20 08:32:17;;;;;;;9.87;5.10;;;;;;;4.17;56.33;101059.63;6010788;23;20151;-87
2022/12/20 08:34:42;;;;;;;8.60;4.47;;;;;;;4.24;55.88;101054.47;6012495;23;20300;-87
2022/12/20 08:37:08;;;;;;;13.13;4.90;;;;;;;4.35;55.96;101050.16;6012676;23;20155;-87
2022/12/20 08:39:33;;;;;;;12.07;5.40;;;;;;;4.44;57.07;101040.66;5988036;23;20162;-87
2022/12/20 08:41:59;;;;;;;14.10;4.70;;;;;;;4.34;57.55;101035.47;6012672;23;20578;-87
2022/12/20 08:44:24;;;;;;;8.77;3.40;;;;;;;4.55;55.89;101041.56;6012942;23;20154;-87
2022/12/20 08:46:50;;;;;;;10.80;4.47;;;;;;;4.63;55.49;101035.53;6012804;23;20243;-87
2022/12/20 08:49:16;;;;;;;12.20;4.60;;;;;;;4.60;55.54;101029.47;6012888;23;20563;-86
2022/12/20 08:51:41;;;;;;;11.70;4.20;;;;;;;4.46;55.43;101031.16;6012574;23;20162;-86
2022/12/20 08:54:07;;;;;;;13.93;4.37;;;;;;;4.54;55.41;101032.03;6012900;23;20154;-87
2022/12/20 08:56:33;;;;;;;8.10;4.23;;;;;;;4.56;55.13;101025.13;6012574;23;20143;-86
2022/12/20 08:58:58;;;;;;;14.13;4.97;;;;;;;4.86;55.33;101017.38;6012519;23;20155;-86
2022/12/20 09:01:25;;;;;;;6.47;4.07;;;;;;;4.88;54.65;101013.03;6013109;23;20153;-86
2022/12/20 09:03:51;;;;;;;12.03;4.90;;;;;;;5.03;55.81;101026.03;6012494;23;20157;-86
2022/12/20 09:06:21;;;;;;;13.50;4.33;;;;;;;5.19;55.65;101013.91;6012277;23;20189;-87
2022/12/20 09:08:47;;;;;;;11.17;3.83;;;;;;;5.19;54.89;101006.09;6012438;23;20151;-86
2022/12/20 09:11:18;;;;;;;11.03;5.03;;;;;;;5.54;53.98;101009.50;5987549;23;20615;-87
2022/12/20 09:13:46;;;;;;;9.43;3.80;;;;;;;5.50;53.48;101003.44;6012700;23;20151;-86
2022/12/20 09:16:16;;;;;;;11.77;5.33;;;;;;;5.62;53.65;100993.88;6012381;23;20150;-87
2022/12/20 09:18:42;;;;;;;11.03;5.17;;;;;;;5.99;53.56;100982.50;6012520;23;20536;-87
2022/12/20 09:21:08;;;;;;;13.37;5.47;;;;;;;5.98;52.67;100980.75;6012348;23;20212;-87
2022/12/20 09:23:35;;;;;;;14.27;5.33;;;;;;;6.00;52.56;100982.47;6012565;23;20611;-87
2022/12/20 09:26:06;;;;;;;13.13;4.43;;;;;;;5.75;52.86;100982.53;6012176;23;20178;-88
2022/12/20 09:28:32;;;;;;;14.07;5.33;;;;;;;5.65;53.97;100978.25;5987663;23;20552;-87
2022/12/20 09:30:59;;;;;;;13.73;4.97;;;;;;;5.78;53.61;100977.34;6012216;23;20254;-87
2022/12/20 09:33:24;;;;;;;11.20;4.17;;;;;;;5.93;53.04;100975.56;6012280;23;20161;-87
2022/12/20 09:35:50;;;;;;;9.57;4.10;;;;;;;6.16;53.53;100970.22;6012854;23;20150;-87
2022/12/20 09:38:15;;;;;;;11.73;4.80;;;;;;;6.35;52.60;100963.19;6012108;23;20155;-87
2022/12/20 09:40:47;;;;;;;11.97;4.83;;;;;;;6.48;51.80;100960.50;6012185;23;20579;-87
2022/12/20 09:43:14;;;;;;;10.63;4.60;;;;;;;6.46;51.26;100954.44;6012456;23;20591;-86
2022/12/20 09:45:40;;;;;;;12.80;4.33;;;;;;;6.41;51.63;100953.59;6011837;23;20178;-87
2022/12/20 09:48:18;;;;;;;13.47;4.50;;;;;;;6.56;50.86;100937.84;5987858;23;20231;-86
2022/12/20 09:50:52;;;;;;;10.73;4.73;;;;;;;6.39;51.22;100944.94;6012177;23;20154;-86
2022/12/20 09:53:41;;;;;;;11.43;5.10;;;;;;;6.49;51.37;100935.31;6012417;23;20225;-87
2022/12/20 09:56:15;;;;;;;11.53;4.73;;;;;;;6.29;50.70;100940.66;6012438;23;20146;-86
2022/12/20 09:59:01;;;;;;;14.17;5.57;;;;;;;6.45;50.92;100934.47;6012643;23;20150;-87
2022/12/20 10:01:30;;;;;;;11.73;5.80;;;;;;;6.36;52.31;100926.72;6012067;23;20522;-87
2022/12/20 10:03:57;;;;;;;9.33;4.97;;;;;;;6.55;51.42;100917.03;5987110;23;20158;-86
2022/12/20 10:06:32;;;;;;;11.93;5.33;;;;;;;6.63;52.11;100913.47;6010563;23;20642;-86
2022/12/20 10:09:03;;;;;;;16.07;6.23;;;;;;;7.05;51.22;100907.00;6012211;23;20213;-86
2022/12/20 10:12:05;;;;;;;13.97;4.47;;;;;;;6.88;50.82;100900.22;5987106;23;20157;-87
2022/12/20 10:14:59;;;;;;;13.47;5.33;;;;;;;7.13;49.92;100899.09;5977620;23;20158;-87
2022/12/20 10:17:33;;;;;;;10.60;4.67;;;;;;;7.22;50.00;100896.41;6012109;23;20143;-87
2022/12/20 10:20:20;;;;;;;9.43;3.87;;;;;;;7.28;50.05;100893.75;6012087;23;20178;-87
2022/12/20 10:22:57;;;;;;;8.87;4.47;;;;;;;7.47;47.78;100894.41;6011797;23;20591;-87
2022/12/20 10:25:29;;;;;;;8.47;4.07;;;;;;;7.41;47.94;100893.59;6012221;23;20177;-87
2022/12/20 10:27:56;;;;;;;11.00;4.10;;;;;;;7.58;47.78;100895.97;6012021;23;20146;-87
2022/12/20 10:30:25;;;;;;;11.30;4.20;;;;;;;7.43;47.63;100890.94;6011714;23;20477;-86
2022/12/20 10:32:54;;;;;;;9.40;3.97;;;;;;;7.84;47.29;100874.75;5987190;23;20170;-87
2022/12/20 10:35:24;;;;;;;12.13;4.37;;;;;;;7.72;47.13;100873.19;6011689;23;20206;-86
2022/12/20 10:38:06;;;;;;;10.37;3.70;;;;;;;7.67;46.78;100874.13;6012027;23;20168;-86
2022/12/20 10:40:37;;;;;;;10.50;3.53;;;;;;;7.86;46.15;100865.16;6011728;23;20639;-86
2022/12/20 10:43:05;;;;;;;12.40;3.73;;;;;;;7.86;46.46;100865.16;5986991;23;20502;-86
2022/12/20 10:45:37;;;;;;;10.10;3.90;;;;;;;7.80;47.39;100853.06;6011784;23;20337;-86
2022/12/20 10:48:25;;;;;;;7.67;3.77;;;;;;;7.66;46.19;100856.72;6012315;23;20136;-87
2022/12/20 10:51:03;;;;;;;7.10;3.13;;;;;;;7.68;46.62;100850.59;6011929;23;20234;-86
2022/12/20 10:53:31;;;;;;;9.10;3.23;;;;;;;7.88;46.86;100843.38;6012246;23;20155;-87
2022/12/20 10:56:19;;;;;;;8.57;3.43;;;;;;;8.07;47.13;100832.66;6011261;23;20151;-86
2022/12/20 10:59:17;;;;;;;6.47;3.67;;;;;;;7.91;47.24;100826.81;6011862;23;20168;-87
2022/12/20 11:01:45;;;;;;;6.40;3.53;;;;;;;8.12;48.33;100821.25;5972810;23;20476;-87
2022/12/20 11:04:34;;;;;;;8.80;3.20;;;;;;;8.64;46.15;100826.50;5986655;23;20182;-86
2022/12/20 11:07:02;;;;;;;9.03;3.40;;;;;;;8.53;45.33;100815.34;6012183;23;20149;-87
2022/12/20 11:09:34;;;;;;;6.97;2.73;;;;;;;8.54;46.48;100811.88;5986654;23;20171;-87
2022/12/20 11:12:15;;;;;;;4.73;1.43;;;;;;;8.49;45.00;100808.47;6011347;23;20160;-87
2022/12/20 11:14:44;;;;;;;5.57;1.83;;;;;;;8.34;45.82;100804.34;6011383;23;20140;-87
2022/12/20 11:17:35;;;;;;;8.17;2.30;;;;;;;8.29;46.08;100797.47;6011297;23;20164;-87
2022/12/20 11:20:22;;;;;;;6.77;3.00;;;;;;;8.04;47.11;100797.84;5987710;23;20154;-86
2022/12/20 11:23:24;;;;;;;8.27;3.17;;;;;;;7.92;47.64;100798.03;6011669;23;20593;-86
2022/12/20 11:25:59;;;;;;;10.47;3.60;;;;;;;8.18;47.63;100794.13;5992457;23;20186;-87
2022/12/20 11:28:46;;;;;;;9.40;3.83;;;;;;;8.54;47.32;100783.13;6011485;23;20158;-87
2022/12/20 11:31:41;;;;;;;5.53;2.20;;;;;;;8.62;45.09;100776.84;6011580;23;20149;-87
2022/12/20 11:34:29;;;;;;;4.97;2.20;;;;;;;8.69;45.63;100771.50;6001275;23;20173;-87
2022/12/20 11:37:17;;;;;;;5.80;2.23;;;;;;;8.53;45.50;100769.19;6011585;23;20139;-86
2022/12/20 11:40:05;;;;;;;2.50;0.80;;;;;;;8.77;45.08;100765.25;5999557;23;20585;-86
2022/12/20 11:43:03;;;;;;;4.53;1.77;;;;;;;9.02;44.73;100755.13;5986484;23;20160;-87
2022/12/20 11:46:04;;;;;;;3.70;1.63;;;;;;;8.77;45.25;100760.03;6011662;23;20171;-87